Terminal Aerodrome Forecast
Issued by NWS Mt. Holly, NJ

Home | Current Version | Previous Version | Text Only | Print | Product List | Glossary On
Versions: 1 2 3 4 5 6 7 8 9 10 11 12 13 14 15 16 17 18 19 20 21 22 23 24 25 26 27 28 29
869
FTUS41 KPHI 302105 CCA
TAFPHL
TAF COR
KPHL 302105Z 3021/3124 18009KT P6SM SCT030 BKN050
      TEMPO 3021/3024 4SM TSRA BR OVC025CB
     FM310000 14006KT 5SM SHRA BR OVC035
      TEMPO 3100/3103 VRB10G20KT 2SM +TSRA BR OVC025CB
     FM310300 12006KT 5SM SHRA BR OVC025
     FM310600 12006KT 3SM SHRA BR OVC010
     FM311500 20006KT P6SM BKN035=

USA.gov is the U.S. government's official web portal to all federal, state and local government web resources and services.